Time;durP1;ratioP1;P1;durP2;ratioP2;P2;SDS_P1;SDS_P2;PMS_P1;PMS_P2;Temp;Humidity;BMP_temperature;BMP_pressure;BME280_temperature;BME280_humidity;BME280_pressure;Samples;Min_cycle;Max_cycle;Signal;HPM_P1;HPM_P2
2021/01/14 00:00:30;;;;;;;1.40;1.30;;;0.90;99.90;;;;;;5029404;28;20530;-73
2021/01/14 00:02:56;;;;;;;1.90;1.53;;;0.90;99.90;;;;;;5035754;28;20179;-72
2021/01/14 00:05:22;;;;;;;1.40;1.30;;;0.90;99.90;;;;;;5032192;28;20447;-71
2021/01/14 00:07:49;;;;;;;1.70;1.60;;;0.90;99.90;;;;;;5037181;28;20201;-72
2021/01/14 00:10:15;;;;;;;2.80;1.33;;;0.90;99.90;;;;;;5034301;28;20444;-73
2021/01/14 00:12:43;;;;;;;2.10;1.87;;;0.80;99.90;;;;;;5035030;28;21303;-70
2021/01/14 00:15:10;;;;;;;4.90;1.63;;;0.80;99.90;;;;;;5038399;28;20498;-71
2021/01/14 00:17:36;;;;;;;3.77;2.53;;;0.80;99.90;;;;;;5039329;28;20431;-71
2021/01/14 00:20:08;;;;;;;1.37;1.27;;;0.80;99.90;;;;;;5043142;28;20418;-70
2021/01/14 00:22:34;;;;;;;1.73;1.63;;;0.90;99.90;;;;;;5039139;28;20425;-70
2021/01/14 00:25:00;;;;;;;3.63;2.17;;;0.90;99.90;;;;;;5043308;28;20408;-72
2021/01/14 00:27:25;;;;;;;3.53;1.53;;;0.90;99.90;;;;;;5041691;28;20192;-71
2021/01/14 00:29:51;;;;;;;3.37;2.00;;;0.90;99.90;;;;;;5040778;28;20921;-73
2021/01/14 00:32:17;;;;;;;1.90;1.73;;;0.90;99.90;;;;;;5039793;28;20233;-73
2021/01/14 00:34:42;;;;;;;1.70;1.50;;;0.90;99.90;;;;;;5039674;28;20250;-73
2021/01/14 00:39:55;;;;;;;1.70;1.60;;;0.90;99.90;;;;;;5041388;28;20211;-70
2021/01/14 00:42:21;;;;;;;3.53;1.70;;;0.90;99.90;;;;;;5039468;28;20425;-71
2021/01/14 00:44:46;;;;;;;3.13;1.50;;;0.80;99.90;;;;;;5034425;28;20459;-71
2021/01/14 00:47:12;;;;;;;2.20;1.57;;;0.90;99.90;;;;;;5037054;28;20463;-72
2021/01/14 00:49:39;;;;;;;1.93;1.83;;;0.80;99.90;;;;;;5040253;28;20457;-74
2021/01/14 00:52:05;;;;;;;4.63;2.40;;;0.80;99.90;;;;;;5042520;28;20790;-73
2021/01/14 00:54:31;;;;;;;2.40;2.20;;;0.80;99.90;;;;;;5038818;28;20537;-74
2021/01/14 00:56:56;;;;;;;3.20;1.73;;;0.80;99.90;;;;;;5038468;28;20522;-72
2021/01/14 00:59:22;;;;;;;4.83;2.63;;;0.90;99.90;;;;;;5041354;28;20184;-72
2021/01/14 01:01:48;;;;;;;2.10;1.83;;;0.90;99.90;;;;;;5039072;28;20225;-74
2021/01/14 01:21:31;;;;;;;6.80;1.90;;;1.00;99.90;;;;;;5033355;28;20415;-69
2021/01/14 01:23:57;;;;;;;3.93;1.90;;;1.00;99.90;;;;;;5031500;28;20425;-72
2021/01/14 01:26:22;;;;;;;2.00;1.90;;;0.90;99.90;;;;;;5036199;28;20184;-72
2021/01/14 01:28:48;;;;;;;6.00;2.47;;;0.90;99.90;;;;;;5038466;28;20180;-71
2021/01/14 01:31:14;;;;;;;2.00;1.90;;;1.00;99.90;;;;;;5038908;28;20209;-72
2021/01/14 01:33:43;;;;;;;4.30;2.40;;;1.00;99.90;;;;;;5038362;28;20192;-84
2021/01/14 01:36:13;;;;;;;2.90;2.00;;;1.00;99.90;;;;;;5029884;28;20428;-86
2021/01/14 01:38:40;;;;;;;3.30;2.60;;;1.00;99.90;;;;;;5036245;28;20763;-74
2021/01/14 01:41:06;;;;;;;7.17;2.80;;;1.10;99.90;;;;;;5041044;28;20463;-79
2021/01/14 01:43:32;;;;;;;4.90;2.43;;;1.10;99.90;;;;;;5042722;28;20830;-80
2021/01/14 01:46:00;;;;;;;2.80;2.60;;;1.00;99.90;;;;;;5037983;28;20213;-71
2021/01/14 01:48:26;;;;;;;2.20;2.00;;;1.00;99.90;;;;;;5035560;28;20492;-71
2021/01/14 01:50:56;;;;;;;2.70;2.30;;;1.00;99.90;;;;;;5035936;28;20431;-71
2021/01/14 01:53:23;;;;;;;2.30;2.20;;;1.00;99.90;;;;;;5037777;28;20434;-71
2021/01/14 01:55:50;;;;;;;4.20;2.80;;;1.00;99.90;;;;;;5040189;28;20462;-71
2021/01/14 01:58:22;;;;;;;3.53;2.20;;;1.00;99.90;;;;;;5037404;28;20760;-71
2021/01/14 02:00:51;;;;;;;2.83;2.43;;;1.10;99.90;;;;;;5039147;28;20434;-71
2021/01/14 02:03:17;;;;;;;4.90;3.10;;;1.10;99.90;;;;;;5038974;28;20458;-71
2021/01/14 02:05:43;;;;;;;5.80;2.90;;;1.10;99.90;;;;;;5037130;28;20472;-71
2021/01/14 02:08:28;;;;;;;3.37;2.97;;;1.10;99.90;;;;;;5036801;28;20218;-71
2021/01/14 02:10:56;;;;;;;3.37;2.50;;;1.00;99.90;;;;;;5036365;28;20437;-71
2021/01/14 02:13:43;;;;;;;6.93;3.40;;;1.10;99.90;;;;;;5033615;28;20456;-70
2021/01/14 02:16:12;;;;;;;3.60;3.30;;;1.00;99.90;;;;;;5036808;28;20513;-71
2021/01/14 02:18:38;;;;;;;3.57;3.20;;;1.00;99.90;;;;;;5037303;28;20443;-72
2021/01/14 02:21:06;;;;;;;3.87;2.80;;;1.00;99.90;;;;;;5036812;28;20964;-71
2021/01/14 02:24:01;;;;;;;6.57;3.37;;;1.10;99.90;;;;;;5034885;28;20439;-71
2021/01/14 02:26:29;;;;;;;4.27;3.17;;;1.10;99.90;;;;;;5032939;28;20449;-71
2021/01/14 02:28:56;;;;;;;3.53;3.23;;;1.00;99.90;;;;;;5039010;28;20443;-73
2021/01/14 02:31:23;;;;;;;4.93;3.20;;;1.10;99.90;;;;;;5036229;28;20460;-73
2021/01/14 02:33:51;;;;;;;6.13;3.70;;;1.10;99.90;;;;;;5036434;28;20789;-73
2021/01/14 02:36:17;;;;;;;3.33;3.03;;;1.00;99.90;;;;;;5036303;28;20493;-72
2021/01/14 02:38:42;;;;;;;3.57;3.27;;;1.00;99.90;;;;;;5037700;28;20461;-72
2021/01/14 02:41:08;;;;;;;3.43;3.13;;;1.00;99.90;;;;;;5039371;28;20784;-71
2021/01/14 02:43:35;;;;;;;4.40;3.10;;;1.10;99.90;;;;;;5033682;28;20181;-72
2021/01/14 02:46:02;;;;;;;6.50;4.30;;;1.10;99.90;;;;;;5033559;28;20182;-72
2021/01/14 02:48:55;;;;;;;4.53;4.13;;;1.00;99.90;;;;;;5036874;28;20437;-72
2021/01/14 02:51:30;;;;;;;6.73;3.97;;;1.00;99.90;;;;;;5040375;28;20465;-72
2021/01/14 02:53:58;;;;;;;8.00;3.70;;;1.10;99.90;;;;;;5040178;28;22075;-72
2021/01/14 02:56:31;;;;;;;3.43;3.10;;;1.10;99.90;;;;;;5040582;28;20504;-72
2021/01/14 02:58:57;;;;;;;6.80;4.00;;;1.10;99.90;;;;;;5036769;28;20469;-72
2021/01/14 03:01:23;;;;;;;6.13;4.10;;;1.10;99.90;;;;;;5036546;28;20473;-72
2021/01/14 03:03:49;;;;;;;3.97;3.67;;;1.10;99.90;;;;;;5040306;28;20783;-71
2021/01/14 03:06:14;;;;;;;4.73;4.33;;;1.20;99.90;;;;;;5033327;28;20447;-71
2021/01/14 03:08:40;;;;;;;6.70;4.77;;;1.10;99.90;;;;;;5039364;28;20207;-71
2021/01/14 03:11:06;;;;;;;5.57;3.47;;;1.10;99.90;;;;;;5041400;28;20808;-73
2021/01/14 03:13:31;;;;;;;4.20;3.70;;;1.10;99.90;;;;;;5040982;28;20183;-73
2021/01/14 03:15:57;;;;;;;4.00;3.70;;;1.10;99.90;;;;;;5040087;28;20496;-73
2021/01/14 03:18:23;;;;;;;3.70;3.00;;;1.10;99.90;;;;;;5035147;28;20194;-74
2021/01/14 03:20:49;;;;;;;3.90;3.13;;;1.10;99.90;;;;;;5043172;28;20179;-73
2021/01/14 03:23:15;;;;;;;3.50;3.20;;;1.10;99.90;;;;;;5036575;28;20237;-73
2021/01/14 03:25:41;;;;;;;5.93;3.77;;;1.10;99.90;;;;;;5040752;28;20439;-72
2021/01/14 03:28:07;;;;;;;6.70;3.57;;;1.10;99.90;;;;;;5036882;28;20443;-72
2021/01/14 03:30:33;;;;;;;3.40;3.20;;;1.10;99.90;;;;;;5038620;28;20491;-72
2021/01/14 03:32:59;;;;;;;7.70;3.03;;;1.10;99.90;;;;;;5036497;28;20600;-73
2021/01/14 03:35:25;;;;;;;3.73;3.23;;;1.20;99.90;;;;;;5037486;28;20259;-73
2021/01/14 03:37:51;;;;;;;4.47;3.07;;;1.20;99.90;;;;;;5021622;28;20175;-72
2021/01/14 03:40:17;;;;;;;2.97;2.77;;;1.10;99.90;;;;;;5039247;28;20222;-72
2021/01/14 03:42:43;;;;;;;3.33;3.03;;;1.10;99.90;;;;;;5036245;28;20445;-72
2021/01/14 03:45:09;;;;;;;4.20;2.60;;;1.20;99.90;;;;;;5037473;28;20790;-72
2021/01/14 03:47:36;;;;;;;2.33;2.23;;;1.20;99.90;;;;;;5034926;28;20430;-72
2021/01/14 03:50:02;;;;;;;3.27;2.97;;;1.20;99.90;;;;;;5036295;28;20446;-72
2021/01/14 03:52:28;;;;;;;3.03;2.93;;;1.20;99.90;;;;;;5036291;28;20458;-73
2021/01/14 03:54:54;;;;;;;5.03;2.40;;;1.20;99.90;;;;;;5039216;28;20496;-73
2021/01/14 03:57:20;;;;;;;2.50;2.30;;;1.20;99.90;;;;;;5022376;28;20651;-73
2021/01/14 03:59:45;;;;;;;2.53;2.30;;;1.20;99.90;;;;;;5039278;28;20262;-72
2021/01/14 04:02:11;;;;;;;2.67;2.47;;;1.30;99.90;;;;;;5020411;28;20234;-72
2021/01/14 04:04:39;;;;;;;3.40;3.00;;;1.20;99.90;;;;;;5036229;28;20193;-72
2021/01/14 04:07:13;;;;;;;3.73;3.33;;;1.30;99.90;;;;;;5040483;28;20460;-73
2021/01/14 04:09:40;;;;;;;3.20;2.87;;;1.30;99.90;;;;;;5040743;28;20426;-72
2021/01/14 04:12:07;;;;;;;5.87;3.73;;;1.30;99.90;;;;;;5038770;28;21018;-72
2021/01/14 04:14:33;;;;;;;3.60;2.37;;;1.30;99.90;;;;;;5038407;28;20423;-73
2021/01/14 04:16:59;;;;;;;3.87;2.87;;;1.30;99.90;;;;;;5031953;28;20519;-73
2021/01/14 04:19:25;;;;;;;4.57;2.60;;;1.40;99.90;;;;;;5037919;28;20436;-73
2021/01/14 04:21:51;;;;;;;2.83;2.57;;;1.40;99.90;;;;;;5039688;28;20437;-73
2021/01/14 04:24:18;;;;;;;4.70;2.80;;;1.40;99.90;;;;;;5038237;28;20429;-72
2021/01/14 04:26:44;;;;;;;3.03;2.40;;;1.30;99.90;;;;;;5035515;28;20487;-73
2021/01/14 04:29:10;;;;;;;4.20;2.87;;;1.40;99.90;;;;;;5023179;28;20903;-72
2021/01/14 04:31:36;;;;;;;5.00;2.80;;;1.30;99.90;;;;;;5039346;28;20470;-73
2021/01/14 04:34:03;;;;;;;3.37;2.77;;;1.30;99.90;;;;;;5038536;28;20435;-72
2021/01/14 04:36:30;;;;;;;6.63;3.47;;;1.30;99.90;;;;;;5039969;28;20433;-72
2021/01/14 04:38:57;;;;;;;3.90;3.60;;;1.40;99.90;;;;;;5022813;28;21008;-73
2021/01/14 04:41:23;;;;;;;3.90;3.60;;;1.40;99.90;;;;;;5035940;28;20447;-73
2021/01/14 04:43:50;;;;;;;8.83;3.60;;;1.40;99.90;;;;;;5038665;28;20801;-72
2021/01/14 04:46:16;;;;;;;5.30;3.90;;;1.40;99.90;;;;;;5031012;28;20611;-73
2021/01/14 04:48:48;;;;;;;8.30;4.20;;;1.40;99.90;;;;;;5033003;28;20786;-73
2021/01/14 04:51:19;;;;;;;5.00;3.20;;;1.40;99.90;;;;;;5033736;28;20434;-72
2021/01/14 04:53:47;;;;;;;4.83;4.07;;;1.40;99.90;;;;;;5021630;28;20427;-73
2021/01/14 04:56:18;;;;;;;5.70;5.00;;;1.40;99.90;;;;;;5037132;28;20475;-73
2021/01/14 04:58:49;;;;;;;7.53;3.90;;;1.40;99.90;;;;;;5035527;28;20449;-73
2021/01/14 05:01:28;;;;;;;6.50;3.77;;;1.50;99.90;;;;;;5036504;28;20524;-73
2021/01/14 05:03:54;;;;;;;4.40;3.97;;;1.50;99.90;;;;;;5039501;28;20418;-73
2021/01/14 05:06:24;;;;;;;3.80;3.50;;;1.50;99.90;;;;;;5036784;28;20914;-73
2021/01/14 05:08:56;;;;;;;6.27;3.80;;;1.50;99.90;;;;;;5039568;28;20519;-73
2021/01/14 05:11:25;;;;;;;4.13;3.30;;;1.60;99.90;;;;;;5037644;28;20491;-73
2021/01/14 05:13:51;;;;;;;7.13;3.67;;;1.50;99.90;;;;;;5038893;28;20432;-73
2021/01/14 05:16:17;;;;;;;4.90;3.63;;;1.60;99.90;;;;;;5036126;28;20442;-73
2021/01/14 05:18:43;;;;;;;4.23;3.40;;;1.50;99.90;;;;;;5036586;28;20191;-73
2021/01/14 05:21:09;;;;;;;7.60;3.53;;;1.60;99.90;;;;;;5019631;28;20911;-73
2021/01/14 05:23:35;;;;;;;4.10;3.60;;;1.60;99.90;;;;;;5032160;28;20446;-73
2021/01/14 05:26:02;;;;;;;4.37;3.43;;;1.50;99.90;;;;;;5037875;28;20445;-73
2021/01/14 05:28:32;;;;;;;6.77;4.10;;;1.50;99.90;;;;;;5039065;28;20764;-73
2021/01/14 05:31:17;;;;;;;5.40;4.10;;;1.60;99.90;;;;;;5032799;28;20442;-73
2021/01/14 05:33:56;;;;;;;5.50;3.67;;;1.60;99.90;;;;;;5032940;28;20506;-73
2021/01/14 05:36:22;;;;;;;5.30;3.90;;;1.60;99.90;;;;;;5027037;28;21305;-73
2021/01/14 05:38:49;;;;;;;6.80;3.57;;;1.60;99.90;;;;;;5017293;28;20466;-73
2021/01/14 05:41:18;;;;;;;6.80;4.13;;;1.60;99.90;;;;;;5004964;28;20183;-73
2021/01/14 05:43:54;;;;;;;5.67;4.60;;;1.60;99.90;;;;;;5036671;28;20432;-73
2021/01/14 05:46:30;;;;;;;6.37;4.87;;;1.50;99.90;;;;;;5035057;28;20770;-73
2021/01/14 05:48:59;;;;;;;5.00;4.20;;;1.50;99.90;;;;;;5037050;28;20852;-73
2021/01/14 05:51:26;;;;;;;4.17;3.80;;;1.50;99.90;;;;;;5034393;28;20513;-73
2021/01/14 05:54:07;;;;;;;8.10;4.80;;;1.50;99.90;;;;;;5017801;28;20444;-74
2021/01/14 05:56:50;;;;;;;6.50;4.47;;;1.50;99.90;;;;;;5034864;28;20914;-73
2021/01/14 05:59:18;;;;;;;6.83;4.40;;;1.60;99.90;;;;;;5034867;28;20441;-73
2021/01/14 06:01:57;;;;;;;10.57;5.33;;;1.50;99.90;;;;;;5038466;28;20528;-73
2021/01/14 06:04:30;;;;;;;11.73;4.90;;;1.50;99.90;;;;;;5037073;28;20455;-73
2021/01/14 06:07:02;;;;;;;6.93;4.67;;;1.60;99.90;;;;;;5018235;28;20572;-73
2021/01/14 06:09:28;;;;;;;8.60;5.53;;;1.50;99.90;;;;;;5039877;28;20437;-73
2021/01/14 06:12:11;;;;;;;6.10;4.50;;;1.50;99.90;;;;;;5017402;28;20466;-73
2021/01/14 06:14:37;;;;;;;7.90;4.13;;;1.50;99.90;;;;;;5039269;28;20425;-74
2021/01/14 06:17:07;;;;;;;6.50;4.30;;;1.50;99.90;;;;;;5038971;28;20457;-73
2021/01/14 06:19:34;;;;;;;8.63;4.90;;;1.60;99.90;;;;;;5039845;28;20436;-73
2021/01/14 06:22:00;;;;;;;9.23;4.87;;;1.60;99.90;;;;;;5040700;28;20432;-73
2021/01/14 06:24:28;;;;;;;6.40;4.53;;;1.60;99.90;;;;;;5039519;28;20666;-73
2021/01/14 06:26:55;;;;;;;8.33;5.07;;;1.60;99.90;;;;;;5014569;28;20447;-74
2021/01/14 06:29:27;;;;;;;10.20;4.67;;;1.60;99.90;;;;;;5025953;28;20479;-73
2021/01/14 06:32:09;;;;;;;6.27;4.67;;;1.60;99.90;;;;;;5004827;28;20458;-73
2021/01/14 06:34:48;;;;;;;14.57;4.67;;;1.60;99.90;;;;;;5037407;28;20535;-73
2021/01/14 06:37:18;;;;;;;5.23;4.33;;;1.60;99.90;;;;;;5034970;28;20487;-73
2021/01/14 06:39:48;;;;;;;8.27;4.90;;;1.60;99.90;;;;;;5036032;28;20432;-73
2021/01/14 06:42:31;;;;;;;8.07;5.20;;;1.60;99.90;;;;;;5038316;28;20430;-73
2021/01/14 06:45:00;;;;;;;7.37;4.30;;;1.70;99.90;;;;;;5016062;28;20545;-73
2021/01/14 06:47:33;;;;;;;6.00;4.60;;;1.70;99.90;;;;;;5032582;28;20500;-74
2021/01/14 06:50:21;;;;;;;5.07;4.30;;;1.60;99.90;;;;;;5019252;28;20425;-73
2021/01/14 06:53:13;;;;;;;7.40;4.90;;;1.60;99.90;;;;;;5037300;28;20932;-73
2021/01/14 06:55:39;;;;;;;4.40;3.90;;;1.60;99.90;;;;;;5025373;28;20430;-72
2021/01/14 06:58:11;;;;;;;7.50;4.60;;;1.60;99.90;;;;;;5039681;28;20455;-73
2021/01/14 07:00:47;;;;;;;7.10;5.00;;;1.60;99.90;;;;;;5038804;28;20517;-73
2021/01/14 07:03:16;;;;;;;5.70;3.93;;;1.60;99.90;;;;;;5043948;28;20440;-73
2021/01/14 07:05:54;;;;;;;11.63;4.97;;;1.60;99.90;;;;;;5042896;28;20536;-74
2021/01/14 07:08:40;;;;;;;11.70;4.40;;;1.50;99.90;;;;;;5025260;28;20994;-73
2021/01/14 07:11:32;;;;;;;5.93;4.10;;;1.50;99.90;;;;;;5024176;28;20472;-74
2021/01/14 07:14:05;;;;;;;13.37;4.73;;;1.50;99.90;;;;;;5041486;28;20453;-74
2021/01/14 07:16:35;;;;;;;6.90;4.80;;;1.50;99.90;;;;;;5041681;28;21160;-73
2021/01/14 07:19:01;;;;;;;5.60;3.70;;;1.50;99.90;;;;;;5043085;28;20525;-74
2021/01/14 07:21:34;;;;;;;6.53;4.40;;;1.50;99.90;;;;;;5041420;28;20526;-74
2021/01/14 07:24:06;;;;;;;5.00;4.40;;;1.50;99.90;;;;;;5042761;28;20204;-73
2021/01/14 07:26:34;;;;;;;6.30;4.90;;;1.40;99.90;;;;;;5042489;28;20471;-73
2021/01/14 07:29:04;;;;;;;6.20;4.40;;;1.40;99.90;;;;;;5042278;28;20444;-73
2021/01/14 07:31:31;;;;;;;5.20;4.70;;;1.40;99.90;;;;;;5043722;28;20510;-73
2021/01/14 07:33:57;;;;;;;4.43;3.80;;;1.40;99.90;;;;;;5042456;28;20419;-73
2021/01/14 07:36:26;;;;;;;7.33;4.53;;;1.30;99.90;;;;;;5032745;28;20906;-73
2021/01/14 07:38:54;;;;;;;7.10;3.70;;;1.40;99.90;;;;;;5030480;28;20205;-73
2021/01/14 07:41:21;;;;;;;4.80;4.30;;;1.30;99.90;;;;;;5009855;28;20733;-74
2021/01/14 07:43:50;;;;;;;5.53;4.50;;;1.30;99.90;;;;;;5037959;28;20435;-73
2021/01/14 07:46:24;;;;;;;6.47;4.80;;;1.20;99.90;;;;;;5038593;28;21071;-73
2021/01/14 07:48:53;;;;;;;4.50;4.03;;;1.10;99.90;;;;;;5035636;28;20438;-73
2021/01/14 07:51:20;;;;;;;8.83;4.80;;;1.10;99.90;;;;;;5024894;28;20824;-74
2021/01/14 07:54:06;;;;;;;7.60;4.53;;;1.10;99.90;;;;;;5033868;28;20438;-73
2021/01/14 07:56:45;;;;;;;5.27;3.80;;;1.10;99.90;;;;;;5038802;28;20552;-73
2021/01/14 07:59:11;;;;;;;4.23;3.83;;;1.10;99.90;;;;;;5040853;28;20435;-73
2021/01/14 08:02:07;;;;;;;8.67;4.30;;;1.10;99.90;;;;;;5039803;28;20450;-73
2021/01/14 08:04:48;;;;;;;6.77;4.27;;;1.10;99.90;;;;;;5024776;28;20520;-74
2021/01/14 08:07:21;;;;;;;6.70;3.50;;;1.10;99.90;;;;;;5040775;28;20794;-74
2021/01/14 08:09:48;;;;;;;6.00;4.60;;;1.20;99.90;;;;;;5038575;28;20515;-74
2021/01/14 08:12:15;;;;;;;6.23;4.57;;;1.20;99.90;;;;;;5038972;28;20486;-74
2021/01/14 08:14:41;;;;;;;9.47;4.30;;;1.20;99.90;;;;;;5039900;28;20462;-73
2021/01/14 08:17:21;;;;;;;8.23;4.80;;;1.30;99.90;;;;;;5039976;28;20439;-74
2021/01/14 08:19:48;;;;;;;5.17;4.67;;;1.30;99.90;;;;;;5037430;28;20642;-74
2021/01/14 08:22:14;;;;;;;5.70;4.47;;;1.30;99.90;;;;;;5039026;28;20432;-74
2021/01/14 08:24:48;;;;;;;11.70;4.97;;;1.40;99.90;;;;;;5043481;28;20889;-74
2021/01/14 08:27:34;;;;;;;8.40;4.20;;;1.40;99.90;;;;;;5041040;28;20957;-74
2021/01/14 08:30:26;;;;;;;7.07;4.37;;;1.30;99.90;;;;;;5038146;28;20538;-74
2021/01/14 08:32:59;;;;;;;4.73;4.03;;;1.40;99.90;;;;;;5033484;28;20475;-74
2021/01/14 08:35:41;;;;;;;11.50;4.93;;;1.40;99.90;;;;;;5041633;28;20443;-74
2021/01/14 08:38:07;;;;;;;6.67;4.67;;;1.40;99.90;;;;;;5038258;28;20887;-74
2021/01/14 08:40:38;;;;;;;7.83;4.73;;;1.50;99.90;;;;;;5039957;28;20437;-74
2021/01/14 08:43:16;;;;;;;6.80;4.07;;;1.50;99.90;;;;;;5033087;28;20179;-74
2021/01/14 08:45:45;;;;;;;6.20;4.50;;;1.50;99.90;;;;;;5040827;28;20443;-74
2021/01/14 08:48:12;;;;;;;5.43;4.63;;;1.60;99.90;;;;;;5040860;28;20427;-74
2021/01/14 08:50:49;;;;;;;8.00;4.83;;;1.60;99.90;;;;;;5042752;28;20779;-74
2021/01/14 08:53:18;;;;;;;10.93;4.37;;;1.60;99.90;;;;;;5020712;28;20555;-74
2021/01/14 08:55:50;;;;;;;5.87;4.17;;;1.60;99.90;;;;;;5042374;28;20415;-74
2021/01/14 08:58:18;;;;;;;8.13;4.77;;;1.60;99.90;;;;;;5038304;28;20423;-74
2021/01/14 09:00:49;;;;;;;6.80;4.67;;;1.70;99.90;;;;;;5040292;28;20440;-74
2021/01/14 09:03:15;;;;;;;5.87;4.80;;;1.70;99.90;;;;;;5036072;28;20422;-74
2021/01/14 09:05:46;;;;;;;11.10;4.43;;;1.80;99.90;;;;;;5035771;28;20437;-74
2021/01/14 09:08:14;;;;;;;4.87;4.40;;;1.80;99.90;;;;;;5036449;28;20458;-74
2021/01/14 09:10:46;;;;;;;7.60;4.30;;;1.80;99.90;;;;;;5040877;28;20423;-74
2021/01/14 09:13:14;;;;;;;5.03;4.30;;;1.90;99.90;;;;;;5039915;28;20524;-75
2021/01/14 09:15:41;;;;;;;4.73;4.30;;;1.90;99.90;;;;;;5041769;28;20435;-74
2021/01/14 09:18:06;;;;;;;7.63;4.90;;;1.90;99.90;;;;;;5038098;28;20435;-75
2021/01/14 09:20:32;;;;;;;6.63;4.43;;;1.90;99.90;;;;;;5038271;28;20434;-74
2021/01/14 09:23:27;;;;;;;6.93;4.17;;;1.90;99.90;;;;;;5041665;28;20443;-74
2021/01/14 09:25:56;;;;;;;6.07;4.50;;;2.00;99.90;;;;;;5009030;28;20177;-74
2021/01/14 09:28:23;;;;;;;4.23;3.83;;;1.90;99.90;;;;;;5039048;28;20530;-74
2021/01/14 09:30:54;;;;;;;9.13;4.77;;;2.00;99.90;;;;;;5039013;28;20497;-74
2021/01/14 09:33:24;;;;;;;5.20;3.73;;;2.00;99.90;;;;;;5041314;28;20501;-75
2021/01/14 09:36:12;;;;;;;7.33;4.90;;;2.00;99.90;;;;;;5042471;28;20442;-75
2021/01/14 09:38:46;;;;;;;10.03;5.20;;;2.00;99.90;;;;;;5040646;28;20757;-74
2021/01/14 09:41:18;;;;;;;3.57;3.27;;;2.00;99.90;;;;;;5038764;28;20500;-75
2021/01/14 09:43:48;;;;;;;9.00;4.47;;;2.00;99.90;;;;;;5038369;28;20415;-75
2021/01/14 09:46:14;;;;;;;9.80;4.90;;;2.00;99.90;;;;;;5020523;28;20475;-74
2021/01/14 09:48:40;;;;;;;9.83;4.80;;;2.00;99.90;;;;;;5042679;28;20500;-74
2021/01/14 09:51:08;;;;;;;7.80;4.50;;;2.10;99.90;;;;;;5043181;28;20468;-74
2021/01/14 09:53:34;;;;;;;5.73;4.87;;;2.20;99.90;;;;;;5042900;28;20474;-74
2021/01/14 09:56:02;;;;;;;8.53;4.73;;;2.20;99.90;;;;;;5043497;28;20427;-74
2021/01/14 09:58:30;;;;;;;6.73;4.27;;;2.20;99.90;;;;;;5042272;28;20910;-75
2021/01/14 10:00:59;;;;;;;5.13;4.17;;;2.20;99.90;;;;;;5044240;28;20431;-75
2021/01/14 10:03:26;;;;;;;4.90;3.87;;;2.20;99.90;;;;;;5036487;28;20432;-75
2021/01/14 10:05:59;;;;;;;7.23;4.60;;;2.20;99.90;;;;;;5044790;28;20488;-75
2021/01/14 10:08:26;;;;;;;5.30;3.80;;;2.20;99.90;;;;;;5042473;28;20421;-75
2021/01/14 10:10:52;;;;;;;5.07;4.10;;;2.20;99.90;;;;;;5041758;28;20427;-75
2021/01/14 10:13:17;;;;;;;7.60;4.20;;;2.10;99.90;;;;;;5027756;28;20495;-75
2021/01/14 10:15:44;;;;;;;5.93;5.37;;;2.10;99.90;;;;;;5044152;28;20501;-75
2021/01/14 10:18:26;;;;;;;6.57;4.87;;;2.10;99.90;;;;;;5043175;28;20259;-75
2021/01/14 10:21:02;;;;;;;4.80;4.30;;;2.20;99.90;;;;;;5045705;28;20405;-75
2021/01/14 10:23:28;;;;;;;4.37;4.03;;;2.20;99.90;;;;;;5042347;28;20445;-75
2021/01/14 10:25:55;;;;;;;8.10;4.17;;;2.20;99.90;;;;;;5044246;28;20465;-75
2021/01/14 10:28:22;;;;;;;6.87;4.87;;;2.10;99.90;;;;;;5026234;28;21018;-75
2021/01/14 10:30:48;;;;;;;7.00;4.43;;;2.10;99.90;;;;;;5044690;28;20428;-75
2021/01/14 10:33:14;;;;;;;5.53;4.03;;;2.30;99.90;;;;;;5041786;28;20542;-75
2021/01/14 10:35:40;;;;;;;6.60;4.50;;;2.20;99.90;;;;;;5044059;28;21058;-75
2021/01/14 10:38:11;;;;;;;9.63;4.90;;;2.20;99.90;;;;;;5042728;28;20272;-75
2021/01/14 10:40:41;;;;;;;7.20;4.83;;;2.20;99.90;;;;;;5040790;28;20166;-75
2021/01/14 10:43:09;;;;;;;5.70;4.53;;;2.20;99.90;;;;;;5043367;28;20432;-74
2021/01/14 10:45:37;;;;;;;13.87;5.23;;;2.10;99.90;;;;;;5044780;28;20982;-74
2021/01/14 10:48:07;;;;;;;6.57;4.67;;;2.10;99.90;;;;;;5043866;28;20916;-74
2021/01/14 10:50:50;;;;;;;7.53;4.20;;;2.10;99.90;;;;;;5025533;28;20432;-75
2021/01/14 10:53:27;;;;;;;6.57;5.20;;;2.20;99.90;;;;;;5043568;28;20502;-75
2021/01/14 10:56:06;;;;;;;8.10;4.50;;;2.10;99.90;;;;;;5043616;28;20426;-74
2021/01/14 10:58:32;;;;;;;5.00;4.60;;;2.10;99.90;;;;;;5044240;28;20470;-74
2021/01/14 11:00:58;;;;;;;13.77;5.50;;;2.10;99.90;;;;;;5041419;28;20433;-74
2021/01/14 11:03:27;;;;;;;7.80;5.23;;;2.20;99.90;;;;;;5042588;28;20467;-75
2021/01/14 11:05:59;;;;;;;9.27;5.37;;;2.20;99.90;;;;;;5043189;28;20464;-74
2021/01/14 11:08:26;;;;;;;9.03;5.60;;;2.10;99.90;;;;;;5042639;28;20485;-74
2021/01/14 11:11:11;;;;;;;7.70;4.87;;;2.10;99.90;;;;;;5043299;28;20440;-74
2021/01/14 11:13:41;;;;;;;13.47;5.07;;;2.20;99.90;;;;;;5041915;28;20544;-75
2021/01/14 11:16:11;;;;;;;8.30;5.53;;;2.20;99.90;;;;;;5042850;28;20440;-74
2021/01/14 11:18:45;;;;;;;6.83;4.77;;;2.20;99.90;;;;;;5038663;28;20479;-74
2021/01/14 11:21:12;;;;;;;5.93;5.17;;;2.10;99.90;;;;;;5043709;28;20855;-75
2021/01/14 11:23:39;;;;;;;7.17;4.53;;;2.10;99.90;;;;;;5025542;28;21210;-74
2021/01/14 11:26:06;;;;;;;4.53;4.13;;;2.10;99.90;;;;;;5044663;28;20756;-75
2021/01/14 11:28:38;;;;;;;8.57;5.33;;;2.00;99.90;;;;;;5040775;28;20532;-74
2021/01/14 11:31:07;;;;;;;9.40;4.80;;;2.00;99.90;;;;;;5042462;28;20436;-75
2021/01/14 11:33:33;;;;;;;5.13;4.50;;;2.00;99.90;;;;;;5043134;28;20524;-75
2021/01/14 11:35:59;;;;;;;8.20;5.27;;;2.00;99.90;;;;;;5045001;28;20432;-74
2021/01/14 11:38:25;;;;;;;5.47;4.93;;;2.00;99.90;;;;;;5041160;28;20428;-74
2021/01/14 11:40:52;;;;;;;7.67;4.60;;;2.00;99.90;;;;;;5040971;28;20444;-75
2021/01/14 11:43:18;;;;;;;8.30;4.90;;;2.10;99.90;;;;;;5043749;28;20942;-74
2021/01/14 11:45:44;;;;;;;7.47;5.17;;;2.00;99.90;;;;;;5043150;28;20440;-75
2021/01/14 11:48:11;;;;;;;5.13;4.17;;;2.00;99.90;;;;;;5042676;28;20909;-74
2021/01/14 11:50:37;;;;;;;8.00;4.80;;;2.00;99.90;;;;;;5044348;28;20432;-74
2021/01/14 11:53:03;;;;;;;8.47;5.03;;;2.00;99.90;;;;;;5042788;28;20459;-74
2021/01/14 11:55:29;;;;;;;10.20;5.00;;;2.10;99.90;;;;;;5026428;28;20423;-75
2021/01/14 11:57:55;;;;;;;9.43;5.37;;;2.10;99.90;;;;;;5025767;28;20430;-74
2021/01/14 12:00:20;;;;;;;10.60;5.70;;;2.10;99.90;;;;;;5022727;28;20878;-75
2021/01/14 12:02:46;;;;;;;7.43;5.27;;;2.20;99.90;;;;;;5043276;28;20459;-75
2021/01/14 12:05:12;;;;;;;5.50;4.97;;;2.20;99.90;;;;;;5042221;28;20431;-74
2021/01/14 12:07:39;;;;;;;6.07;5.20;;;2.20;99.90;;;;;;5042214;28;20185;-74
2021/01/14 12:10:07;;;;;;;10.13;5.70;;;2.20;99.90;;;;;;5042972;28;20417;-74
2021/01/14 12:12:36;;;;;;;7.07;6.37;;;2.20;99.90;;;;;;5042189;28;20459;-74
2021/01/14 12:15:05;;;;;;;13.50;5.40;;;2.20;99.90;;;;;;5043652;28;20412;-73
2021/01/14 12:17:31;;;;;;;11.27;5.83;;;2.10;99.90;;;;;;5041444;28;20419;-74
2021/01/14 12:19:56;;;;;;;8.30;6.37;;;2.10;99.90;;;;;;5043148;28;20431;-74
2021/01/14 12:22:22;;;;;;;6.60;5.20;;;2.10;99.90;;;;;;5038727;28;20750;-74
2021/01/14 12:24:48;;;;;;;5.70;5.10;;;2.00;99.90;;;;;;5040368;28;20185;-74
2021/01/14 12:27:13;;;;;;;12.30;4.60;;;2.00;99.90;;;;;;5042510;28;20184;-74
2021/01/14 12:29:39;;;;;;;7.00;5.23;;;2.00;99.90;;;;;;5034324;28;20178;-73
2021/01/14 12:32:05;;;;;;;5.83;5.23;;;1.90;99.90;;;;;;5033997;28;20204;-73
2021/01/14 12:34:32;;;;;;;6.90;6.20;;;2.00;99.90;;;;;;5038687;28;20519;-73
2021/01/14 12:36:58;;;;;;;6.20;5.23;;;2.00;99.90;;;;;;5040834;28;20432;-74
2021/01/14 12:39:25;;;;;;;8.07;5.63;;;2.00;99.90;;;;;;5040424;28;20445;-74
2021/01/14 12:41:51;;;;;;;6.83;5.70;;;1.90;99.90;;;;;;5041927;28;20740;-73
2021/01/14 12:44:17;;;;;;;7.57;5.43;;;1.90;99.90;;;;;;5043941;28;20431;-73
2021/01/14 12:46:47;;;;;;;17.70;7.30;;;2.00;99.90;;;;;;5041293;28;20450;-72
2021/01/14 12:49:15;;;;;;;8.77;5.83;;;1.90;99.90;;;;;;5043187;28;20899;-74
2021/01/14 12:51:41;;;;;;;7.30;5.37;;;1.90;99.90;;;;;;5042793;28;20478;-74
2021/01/14 12:54:08;;;;;;;8.53;5.30;;;1.90;99.90;;;;;;5041157;28;20492;-74
2021/01/14 12:56:34;;;;;;;9.53;4.83;;;1.90;99.90;;;;;;5039218;28;20435;-74
2021/01/14 12:59:00;;;;;;;6.30;4.73;;;1.90;99.90;;;;;;5040054;28;20789;-74
2021/01/14 13:01:31;;;;;;;7.13;5.20;;;1.80;99.90;;;;;;5038939;28;20437;-77
2021/01/14 13:03:58;;;;;;;8.20;4.97;;;1.80;99.90;;;;;;5025311;28;20761;-77
2021/01/14 13:06:25;;;;;;;9.03;5.10;;;1.90;99.90;;;;;;5043967;28;20442;-77
2021/01/14 13:08:51;;;;;;;6.00;5.00;;;1.80;99.90;;;;;;5022465;28;20945;-77
2021/01/14 13:11:17;;;;;;;7.90;5.43;;;1.80;99.90;;;;;;5043718;28;20889;-78
2021/01/14 13:13:42;;;;;;;6.93;4.90;;;1.90;99.90;;;;;;5037491;28;20511;-77
2021/01/14 13:16:08;;;;;;;7.33;5.17;;;1.90;99.90;;;;;;5042101;28;20180;-77
2021/01/14 13:18:34;;;;;;;5.83;4.80;;;1.80;99.90;;;;;;5039345;28;20192;-76
2021/01/14 13:21:00;;;;;;;9.40;5.30;;;1.80;99.90;;;;;;5023170;28;20789;-77
2021/01/14 13:23:25;;;;;;;8.30;5.70;;;1.80;99.90;;;;;;5022536;28;20624;-76
2021/01/14 13:25:51;;;;;;;9.17;6.57;;;1.80;99.90;;;;;;5042914;28;20261;-77